CDT,Max TemperatureF,Mean TemperatureF,Min TemperatureF,Max Dew PointF,MeanDew PointF,Min DewpointF,Max Humidity, Mean Humidity, Min Humidity, Max Sea Level PressureIn, Mean Sea Level PressureIn, Min Sea Level PressureIn, Max VisibilityMiles, Mean VisibilityMiles, Min VisibilityMiles, Max Wind SpeedMPH, Mean Wind SpeedMPH, Max Gust SpeedMPH,PrecipitationIn, CloudCover, Events, WindDirDegrees
2013-8-1,88,73,60,70,65,59,94,81,48,30.11,30.04,29.86,10,9,2,28,5,36,0.94,2,Rain,159
2013-8-2,82,73,64,69,66,61,94,77,59,30.04,29.93,29.81,10,10,7,16,8,26,0.00,4,Rain,60
2013-8-3,78,69,61,62,60,57,91,74,52,30.20,30.13,30.05,10,10,10,12,5,,0.00,3,,39
2013-8-4,79,68,58,67,61,56,93,76,57,30.20,30.12,30.03,10,10,10,14,6,18,0.00,5,,122
2013-8-5,86,77,68,75,70,65,94,85,64,30.04,29.93,29.86,10,8,2,16,6,16,0.00,6,,193
2013-8-6,87,76,66,76,70,64,95,82,61,29.95,29.85,29.82,10,7,0,30,4,43,0.07,4,Fog-Rain,279
2013-8-7,82,73,64,68,64,61,91,74,49,30.01,29.96,29.86,10,10,10,9,5,,0.00,0,,8
2013-8-8,76,69,63,67,64,61,93,82,65,30.05,30.02,29.97,10,10,10,7,3,,0.00,2,,116
2013-8-9,80,70,59,69,63,58,96,79,51,30.16,30.09,30.04,10,8,0,10,4,,0.00,2,Fog,14
2013-8-10,84,70,56,67,61,55,95,74,46,30.22,30.16,30.08,10,10,4,12,3,17,0.00,2,,160
2013-8-11,86,74,62,70,65,59,91,74,52,30.13,30.07,29.99,10,10,10,13,7,18,0.00,1,Rain,203
2013-8-12,84,74,63,69,64,60,93,74,44,30.09,30.05,30.02,10,10,7,12,5,,0.00,1,,10
2013-8-13,79,69,59,63,59,55,94,75,43,30.19,30.14,30.10,10,10,7,8,4,,0.00,3,,29
2013-8-14,74,64,53,63,58,52,94,80,59,30.20,30.15,30.07,10,10,7,9,4,,0.00,4,Rain,123
2013-8-15,68,64,61,62,60,59,94,89,80,30.12,30.07,30.04,10,8,2,15,7,21,0.61,8,Rain,105
2013-8-16,75,68,61,61,60,58,93,79,58,30.17,30.15,30.10,10,10,5,14,5,18,0.04,8,Rain,119
2013-8-17,79,68,58,61,58,56,93,73,47,30.21,30.16,30.12,10,10,7,15,6,18,0.00,3,,146
2013-8-18,81,66,52,64,58,51,94,75,47,30.16,30.11,30.05,10,9,2,14,5,18,0.00,0,,157
2013-8-19,87,74,62,69,65,60,93,75,49,30.08,30.00,29.93,10,9,5,17,7,23,0.00,2,,162
2013-8-20,90,80,69,71,68,66,91,72,48,29.97,29.94,29.91,10,10,7,17,9,23,0.00,0,,187
2013-8-21,93,80,69,74,68,66,88,70,44,30.00,29.97,29.94,10,10,7,16,8,21,0.00,0,,179
2013-8-22,85,76,68,70,67,65,91,78,54,30.12,30.06,29.99,10,10,10,17,6,26,0.09,2,Rain,88
2013-8-23,90,78,68,72,68,66,93,74,47,30.09,30.04,29.97,10,9,4,16,5,24,0.00,3,,142
2013-8-24,93,82,72,71,70,67,85,68,45,30.07,30.03,29.99,10,10,10,22,10,28,0.00,0,Rain,158
2013-8-25,97,84,73,73,69,66,83,64,37,30.12,30.07,30.04,10,10,10,17,11,24,0.00,0,,175
2013-8-26,97,84,73,71,69,66,84,62,37,30.09,30.03,29.95,10,10,10,18,10,24,0.00,0,,186
2013-8-27,98,86,74,70,66,63,78,57,32,29.96,29.94,29.90,10,10,10,17,10,24,0.00,0,,205
2013-8-28,97,82,66,69,65,61,87,64,31,30.01,29.98,29.94,10,10,10,13,5,,0.00,0,,177
2013-8-29,98,82,66,73,69,63,92,71,37,30.02,29.97,29.91,10,10,7,14,4,17,0.00,0,,151
2013-8-30,94,80,67,78,71,65,91,75,52,29.93,29.90,29.86,10,10,7,14,4,17,0.00,0,,349
2013-8-31,95,82,70,73,70,66,93,73,39,29.92,29.86,29.79,10,10,5,7,3,33,0.00,0,,148